Time;durP1;ratioP1;P1;durP2;ratioP2;P2;SDS_P1;SDS_P2;PMS_P1;PMS_P2;Temp;Humidity;BMP_temperature;BMP_pressure;BME280_temperature;BME280_humidity;BME280_pressure;Samples;Min_cycle;Max_cycle;Signal;HPM_P1;HPM_P2
2023/11/26 00:00:54;;;;;;;18.43;8.03;;;-0.50;99.90;;;;;;4415348;28;658644;-68
2023/11/26 00:03:41;;;;;;;37.67;15.40;;;-0.40;99.90;;;;;;4436979;28;658187;-69
2023/11/26 00:06:28;;;;;;;43.07;17.90;;;-0.50;99.90;;;;;;4421928;28;658790;-69
2023/11/26 00:09:16;;;;;;;46.97;20.00;;;-0.50;99.90;;;;;;4439120;27;660019;-69
2023/11/26 00:12:04;;;;;;;44.13;16.40;;;-0.50;99.90;;;;;;4422639;28;658847;-69
2023/11/26 00:14:52;;;;;;;55.60;18.13;;;-0.50;99.90;;;;;;4433400;28;659162;-69
2023/11/26 00:17:40;;;;;;;52.63;18.90;;;-0.50;99.90;;;;;;4406881;28;659530;-68
2023/11/26 00:20:27;;;;;;;37.37;15.10;;;-0.50;99.90;;;;;;4357313;28;658552;-68
2023/11/26 00:23:15;;;;;;;43.57;16.93;;;-0.40;99.90;;;;;;4425252;28;658335;-69
2023/11/26 00:26:02;;;;;;;45.30;20.87;;;-0.50;99.90;;;;;;4437690;28;659481;-67
2023/11/26 00:28:49;;;;;;;50.37;21.10;;;-0.40;99.90;;;;;;4439380;28;659640;-69
2023/11/26 00:31:37;;;;;;;42.30;16.37;;;-0.40;99.90;;;;;;4424664;28;659058;-68
2023/11/26 00:34:25;;;;;;;45.13;18.37;;;-0.40;99.90;;;;;;4399813;28;659327;-69
2023/11/26 00:37:13;;;;;;;10.63;4.97;;;-0.40;99.90;;;;;;4412183;28;659294;-72
2023/11/26 00:40:00;;;;;;;24.47;8.90;;;-0.30;99.90;;;;;;4443003;28;658466;-68
2023/11/26 00:42:48;;;;;;;42.07;14.63;;;-0.40;99.90;;;;;;4423183;28;658428;-71
2023/11/26 00:45:35;;;;;;;40.00;16.83;;;-0.40;99.90;;;;;;4428641;28;659568;-69
2023/11/26 00:48:22;;;;;;;39.47;17.40;;;-0.40;99.90;;;;;;4416240;28;659047;-68
2023/11/26 00:51:17;;;;;;;47.60;17.80;;;-0.40;99.90;;;;;;4426405;28;659048;-69
2023/11/26 00:54:05;;;;;;;28.60;14.33;;;-0.40;99.90;;;;;;4420830;28;658412;-69
2023/11/26 00:56:52;;;;;;;37.70;13.90;;;-0.40;99.90;;;;;;4420096;28;659286;-67
2023/11/26 00:59:40;;;;;;;44.27;15.87;;;-0.40;99.90;;;;;;4442945;28;659429;-69
2023/11/26 01:02:29;;;;;;;37.70;18.20;;;-0.40;99.90;;;;;;4440602;28;658460;-68
2023/11/26 01:05:16;;;;;;;31.57;12.70;;;-0.40;99.90;;;;;;4429696;28;659345;-69
2023/11/26 01:08:06;;;;;;;14.63;6.30;;;-0.30;99.90;;;;;;4418122;28;658698;-69
2023/11/26 01:10:53;;;;;;;15.47;6.57;;;-0.40;99.90;;;;;;4410317;28;658443;-69
2023/11/26 01:13:40;;;;;;;13.90;6.10;;;-0.50;99.90;;;;;;4433986;28;658984;-69
2023/11/26 01:16:27;;;;;;;13.20;5.17;;;-0.60;99.90;;;;;;4408238;28;657885;-68
2023/11/26 01:19:14;;;;;;;17.63;5.57;;;-0.80;99.90;;;;;;4429620;28;657497;-69
2023/11/26 01:22:02;;;;;;;11.87;4.83;;;-0.70;99.90;;;;;;4431503;28;658465;-68
2023/11/26 01:24:51;;;;;;;10.90;4.00;;;-0.60;99.90;;;;;;4409612;28;658779;-69
2023/11/26 01:27:39;;;;;;;8.53;4.30;;;-0.70;99.90;;;;;;4402715;28;657766;-68
2023/11/26 01:30:26;;;;;;;7.63;3.30;;;-0.70;99.90;;;;;;4430307;28;657242;-69
2023/11/26 01:33:13;;;;;;;7.37;3.47;;;-0.70;99.90;;;;;;4411837;28;656816;-69
2023/11/26 01:36:00;;;;;;;7.03;3.00;;;-0.80;99.90;;;;;;4437924;28;656883;-68
2023/11/26 01:38:47;;;;;;;7.57;3.80;;;-0.80;99.90;;;;;;4414855;28;656865;-69
2023/11/26 01:41:36;;;;;;;9.07;4.00;;;-0.90;99.90;;;;;;4429845;28;657159;-69
2023/11/26 01:44:23;;;;;;;7.57;3.60;;;-0.90;99.90;;;;;;4404337;28;656511;-69
2023/11/26 01:47:10;;;;;;;8.60;3.40;;;-0.80;99.90;;;;;;4432957;28;657002;-69
2023/11/26 01:49:57;;;;;;;6.40;2.43;;;-0.80;99.90;;;;;;4416439;28;656735;-69
2023/11/26 01:52:45;;;;;;;9.87;3.37;;;-0.90;99.90;;;;;;4429010;28;657609;-69
2023/11/26 01:55:32;;;;;;;8.03;3.60;;;-0.90;99.90;;;;;;4425416;28;656892;-68
2023/11/26 01:58:21;;;;;;;7.70;3.50;;;-0.90;99.90;;;;;;4434570;28;656629;-68
2023/11/26 02:01:09;;;;;;;5.05;3.20;;;-0.90;99.90;;;;;;4419060;28;656939;-69
2023/11/26 02:03:56;;;;;;;7.70;3.00;;;-1.10;99.90;;;;;;4429402;28;656745;-69
2023/11/26 02:06:43;;;;;;;8.18;3.20;;;-1.00;99.90;;;;;;4407077;28;656715;-69
2023/11/26 02:09:31;;;;;;;11.47;3.40;;;-1.00;99.90;;;;;;4430525;28;657585;-69
2023/11/26 02:12:18;;;;;;;4.93;2.73;;;-1.00;99.90;;;;;;4442504;27;657660;-68
2023/11/26 02:15:09;;;;;;;4.37;2.43;;;-1.10;99.90;;;;;;4443169;27;656958;-67
2023/11/26 02:17:57;;;;;;;6.60;2.97;;;-1.00;99.90;;;;;;4368345;27;657704;-67
2023/11/26 02:20:44;;;;;;;6.90;2.47;;;-1.00;99.90;;;;;;4395859;27;656818;-67
2023/11/26 02:23:33;;;;;;;1.83;1.17;;;-1.00;99.90;;;;;;4376474;27;656916;-71
2023/11/26 02:26:22;;;;;;;6.50;2.93;;;-1.10;99.90;;;;;;4415399;27;657656;-69
2023/11/26 02:29:09;;;;;;;3.47;2.07;;;-1.20;99.90;;;;;;4443679;27;656890;-69
2023/11/26 02:31:56;;;;;;;5.93;2.93;;;-1.10;99.90;;;;;;4458031;27;657371;-68
2023/11/26 02:34:43;;;;;;;6.25;2.17;;;-1.20;99.90;;;;;;4434992;27;656888;-69
2023/11/26 02:37:30;;;;;;;6.47;2.93;;;-1.20;99.90;;;;;;4457476;27;656823;-68
2023/11/26 02:40:19;;;;;;;1.70;1.27;;;-1.20;99.90;;;;;;4436233;27;656947;-68
2023/11/26 02:43:07;;;;;;;10.63;3.67;;;-1.20;99.90;;;;;;4456132;27;656508;-69
2023/11/26 02:45:57;;;;;;;7.47;3.27;;;-1.20;99.90;;;;;;4433637;27;657970;-71
2023/11/26 02:48:44;;;;;;;8.57;3.40;;;-1.20;99.90;;;;;;4436262;27;657558;-68
2023/11/26 02:51:32;;;;;;;9.03;4.87;;;-1.30;99.90;;;;;;4460235;27;656809;-70
2023/11/26 02:54:19;;;;;;;8.13;4.50;;;-1.30;99.90;;;;;;4426167;27;657382;-69
2023/11/26 02:57:07;;;;;;;11.13;5.00;;;-1.30;99.90;;;;;;4451247;27;656408;-68
2023/11/26 02:59:58;;;;;;;14.87;5.07;;;-1.30;99.90;;;;;;4436277;27;659151;-71
2023/11/26 03:02:45;;;;;;;12.63;5.20;;;-1.30;99.90;;;;;;4434506;27;658391;-71
2023/11/26 03:05:32;;;;;;;6.83;2.97;;;-1.40;99.90;;;;;;4450723;28;657782;-71
2023/11/26 03:08:22;;;;;;;14.43;5.40;;;-1.40;99.90;;;;;;4454183;28;658178;-71
2023/11/26 03:14:14;;;;;;;12.30;6.27;;;-1.40;99.90;;;;;;4436370;27;657742;-72
2023/11/26 03:17:04;;;;;;;12.97;6.37;;;-1.30;99.90;;;;;;4448733;28;657462;-71
2023/11/26 03:19:51;;;;;;;8.00;2.67;;;-1.30;99.90;;;;;;4418680;28;658370;-69
2023/11/26 03:22:38;;;;;;;8.67;4.50;;;-1.30;99.90;;;;;;4435153;27;656442;-68
2023/11/26 03:25:25;;;;;;;3.10;2.03;;;-1.30;99.90;;;;;;4461955;27;657183;-69
2023/11/26 03:28:13;;;;;;;12.18;5.72;;;-1.40;99.90;;;;;;4437071;27;657065;-68
2023/11/26 03:31:00;;;;;;;12.93;6.30;;;-1.40;99.90;;;;;;4462024;27;658436;-69
2023/11/26 03:33:51;;;;;;;11.53;5.87;;;-1.40;99.90;;;;;;4443461;27;657374;-69
2023/11/26 03:36:38;;;;;;;9.80;4.57;;;-1.40;99.90;;;;;;4431275;27;657302;-69
2023/11/26 03:39:25;;;;;;;11.37;5.63;;;-1.40;99.90;;;;;;4455189;27;656805;-69
2023/11/26 03:42:14;;;;;;;9.00;5.10;;;-1.40;99.90;;;;;;4428007;27;657620;-68
2023/11/26 03:45:01;;;;;;;11.40;5.90;;;-1.40;99.90;;;;;;4452633;28;657412;-72
2023/11/26 03:47:48;;;;;;;12.03;5.93;;;-1.40;99.90;;;;;;4432707;27;657970;-71
2023/11/26 03:50:37;;;;;;;12.07;6.37;;;-1.40;99.90;;;;;;4442885;28;657519;-69
2023/11/26 03:53:24;;;;;;;11.37;5.53;;;-1.40;99.90;;;;;;4427404;27;657739;-69
2023/11/26 03:56:11;;;;;;;15.13;6.13;;;-1.40;99.90;;;;;;4449290;27;658009;-69
2023/11/26 03:58:58;;;;;;;14.73;7.13;;;-1.40;99.90;;;;;;4427524;27;658180;-69
2023/11/26 04:01:46;;;;;;;13.70;6.27;;;-1.40;99.90;;;;;;4454753;27;658367;-69
2023/11/26 04:04:34;;;;;;;12.40;5.93;;;-1.40;99.90;;;;;;4431578;28;657632;-71
2023/11/26 04:07:22;;;;;;;12.80;6.07;;;-1.40;99.90;;;;;;4451869;27;657948;-69
2023/11/26 04:10:10;;;;;;;7.07;3.95;;;-1.50;99.90;;;;;;4435040;27;658139;-72
2023/11/26 04:12:58;;;;;;;13.10;5.83;;;-1.50;99.90;;;;;;4442899;28;656605;-71
2023/11/26 04:15:54;;;;;;;6.20;3.50;;;-1.50;99.90;;;;;;4451814;28;657426;-71
2023/11/26 04:18:41;;;;;;;12.40;5.70;;;-1.60;99.90;;;;;;4435396;27;656746;-71
2023/11/26 04:21:28;;;;;;;6.10;3.97;;;-1.70;99.90;;;;;;4429324;27;657573;-71
2023/11/26 04:24:18;;;;;;;13.50;5.57;;;-1.80;99.90;;;;;;4454388;28;656780;-69
2023/11/26 04:27:05;;;;;;;15.23;3.83;;;-1.80;99.90;;;;;;4435121;28;658074;-69
2023/11/26 04:29:53;;;;;;;9.70;5.20;;;-1.90;99.90;;;;;;4436714;28;658424;-71
2023/11/26 04:32:40;;;;;;;5.93;2.90;;;-1.80;99.90;;;;;;4459138;27;656857;-71
2023/11/26 04:35:27;;;;;;;8.33;3.47;;;-1.80;99.90;;;;;;4436262;28;656512;-71
2023/11/26 04:38:15;;;;;;;9.43;4.13;;;-1.80;99.90;;;;;;4462034;28;657123;-71
2023/11/26 04:41:03;;;;;;;9.30;4.27;;;-1.80;99.90;;;;;;4457124;28;657385;-71
2023/11/26 04:43:51;;;;;;;8.60;5.07;;;-1.90;99.90;;;;;;4427430;28;657769;-71
2023/11/26 04:46:38;;;;;;;11.17;5.13;;;-2.00;99.90;;;;;;4439048;28;657029;-71
2023/11/26 04:49:25;;;;;;;11.47;4.70;;;-2.00;99.90;;;;;;4458116;27;658456;-69
2023/11/26 04:52:12;;;;;;;8.70;3.87;;;-2.20;99.90;;;;;;4446946;27;659672;-71
2023/11/26 04:55:00;;;;;;;9.40;5.27;;;-2.20;99.90;;;;;;4449497;28;658175;-71
2023/11/26 04:57:49;;;;;;;11.83;4.97;;;-2.20;99.90;;;;;;4438011;28;657286;-70
2023/11/26 05:00:36;;;;;;;7.97;3.83;;;-2.30;99.90;;;;;;4457705;27;656784;-69
2023/11/26 05:03:23;;;;;;;9.13;4.80;;;-2.30;99.90;;;;;;4445602;27;656280;-71
2023/11/26 05:06:13;;;;;;;6.60;3.30;;;-2.30;99.90;;;;;;4440626;27;657163;-71
2023/11/26 05:09:00;;;;;;;14.93;5.77;;;-2.40;99.90;;;;;;4422708;28;657951;-71
2023/11/26 05:11:47;;;;;;;9.13;4.03;;;-2.40;99.90;;;;;;4444657;27;657557;-70
2023/11/26 05:14:36;;;;;;;13.27;5.03;;;-2.40;99.90;;;;;;4462605;27;657773;-70
2023/11/26 05:17:23;;;;;;;10.13;5.20;;;-2.50;99.90;;;;;;4436218;27;658047;-71
2023/11/26 05:20:13;;;;;;;5.83;2.73;;;-2.50;99.90;;;;;;4446702;27;658089;-70
2023/11/26 05:23:01;;;;;;;10.23;4.77;;;-2.60;99.90;;;;;;4430490;27;657431;-72
2023/11/26 05:25:48;;;;;;;7.90;3.73;;;-2.60;99.90;;;;;;4432173;27;657890;-71
2023/11/26 05:28:35;;;;;;;15.30;6.10;;;-2.50;99.90;;;;;;4455785;27;657290;-72
2023/11/26 05:31:24;;;;;;;12.63;5.47;;;-2.50;99.90;;;;;;4444943;27;658144;-71
2023/11/26 05:34:11;;;;;;;10.77;5.20;;;-2.50;99.90;;;;;;4454871;27;657024;-70
2023/11/26 05:37:00;;;;;;;15.93;6.03;;;-2.50;99.90;;;;;;4430803;28;657427;-69
2023/11/26 05:39:47;;;;;;;12.85;4.90;;;-2.40;99.90;;;;;;4439434;27;657587;-71
2023/11/26 05:42:35;;;;;;;14.53;7.00;;;-2.30;99.90;;;;;;4452610;27;658575;-72
2023/11/26 05:45:22;;;;;;;9.67;4.23;;;-2.20;99.90;;;;;;4453604;27;658314;-68
2023/11/26 05:48:11;;;;;;;5.93;3.03;;;-2.20;99.90;;;;;;4467308;27;656350;-71
2023/11/26 05:50:59;;;;;;;15.57;7.20;;;-2.20;99.90;;;;;;4436884;27;656430;-71
2023/11/26 05:53:46;;;;;;;9.43;4.57;;;-2.20;99.90;;;;;;4454214;27;657502;-71
2023/11/26 05:56:33;;;;;;;12.97;6.43;;;-2.20;99.90;;;;;;4430615;28;656694;-72
2023/11/26 05:59:21;;;;;;;16.47;6.43;;;-2.20;99.90;;;;;;4456671;28;658068;-72
2023/11/26 06:02:08;;;;;;;12.40;6.27;;;-2.20;99.90;;;;;;4422355;28;657726;-72
2023/11/26 06:04:57;;;;;;;13.90;6.10;;;-2.10;99.90;;;;;;4460837;28;657785;-72
2023/11/26 06:07:44;;;;;;;13.43;6.13;;;-2.10;99.90;;;;;;4442780;27;658711;-72
2023/11/26 06:10:32;;;;;;;13.97;6.07;;;-2.10;99.90;;;;;;4458491;28;656922;-71
2023/11/26 06:13:19;;;;;;;14.23;6.77;;;-2.20;99.90;;;;;;4430301;27;658332;-71
2023/11/26 06:16:06;;;;;;;15.40;6.90;;;-2.10;99.90;;;;;;4453761;28;658159;-72
2023/11/26 06:18:54;;;;;;;10.67;3.50;;;-2.20;99.90;;;;;;4434682;27;657539;-71
2023/11/26 06:21:42;;;;;;;16.70;6.00;;;-2.10;99.90;;;;;;4398843;27;657643;-70
2023/11/26 06:24:29;;;;;;;18.33;7.07;;;-2.10;99.90;;;;;;4344856;27;657463;-70
2023/11/26 06:27:17;;;;;;;11.63;5.63;;;-2.10;99.90;;;;;;4363912;28;657275;-70
2023/11/26 06:30:04;;;;;;;18.17;7.03;;;-2.10;99.90;;;;;;4336533;27;658286;-70
2023/11/26 06:32:52;;;;;;;18.93;7.17;;;-2.00;99.90;;;;;;4459456;27;657059;-72
2023/11/26 06:35:39;;;;;;;20.10;5.87;;;-2.00;99.90;;;;;;4441616;27;658232;-71
2023/11/26 06:38:27;;;;;;;17.40;7.53;;;-2.00;99.90;;;;;;4464824;28;657278;-72
2023/11/26 06:41:23;;;;;;;14.77;7.33;;;-2.00;99.90;;;;;;4430806;27;658468;-70
2023/11/26 06:44:10;;;;;;;13.27;6.23;;;-2.00;99.90;;;;;;4432092;27;658869;-70
2023/11/26 06:46:58;;;;;;;19.53;6.70;;;-2.00;99.90;;;;;;4441281;27;657606;-71
2023/11/26 06:49:45;;;;;;;17.00;7.07;;;-2.10;99.90;;;;;;4461431;28;658504;-73
2023/11/26 06:52:33;;;;;;;2.00;1.25;;;-2.10;99.90;;;;;;4443546;27;657281;-72
2023/11/26 06:55:22;;;;;;;11.90;5.10;;;-2.10;99.90;;;;;;4449112;28;657109;-74
2023/11/26 06:58:09;;;;;;;13.83;5.87;;;-2.10;99.90;;;;;;4437696;27;658432;-72
2023/11/26 07:00:56;;;;;;;5.37;2.70;;;-2.20;99.90;;;;;;4456244;28;657896;-73
2023/11/26 07:03:44;;;;;;;11.73;4.57;;;-2.20;99.90;;;;;;4426818;27;656354;-72
2023/11/26 07:06:32;;;;;;;9.90;4.97;;;-2.10;99.90;;;;;;4458010;28;657341;-73
2023/11/26 07:09:19;;;;;;;12.20;4.13;;;-2.20;99.90;;;;;;4442563;27;656622;-73
2023/11/26 07:12:08;;;;;;;1.17;0.63;;;-2.20;99.90;;;;;;4454826;27;659554;-72
2023/11/26 07:14:55;;;;;;;7.83;4.37;;;-2.20;99.90;;;;;;4424939;27;656924;-72
2023/11/26 07:17:43;;;;;;;9.73;4.63;;;-2.10;99.90;;;;;;4436551;27;657269;-72
2023/11/26 07:20:30;;;;;;;9.97;4.47;;;-2.10;99.90;;;;;;4456733;27;657031;-73
2023/11/26 07:23:17;;;;;;;1.20;0.80;;;-2.00;99.90;;;;;;4441781;27;657023;-71
2023/11/26 07:26:11;;;;;;;12.10;5.87;;;-2.00;99.90;;;;;;4467900;27;656951;-73
2023/11/26 07:28:59;;;;;;;13.33;5.20;;;-2.10;99.90;;;;;;4397641;28;658227;-72
2023/11/26 07:31:47;;;;;;;12.37;5.63;;;-2.00;99.90;;;;;;4449367;28;657246;-72
2023/11/26 07:34:34;;;;;;;13.10;5.50;;;-2.10;99.90;;;;;;4424532;28;658000;-73
2023/11/26 07:37:23;;;;;;;10.77;5.20;;;-2.10;99.90;;;;;;4451359;28;657621;-73
2023/11/26 07:40:14;;;;;;;11.50;4.37;;;-2.00;99.90;;;;;;4429350;27;657974;-71
2023/11/26 07:43:01;;;;;;;9.97;4.50;;;-1.90;99.90;;;;;;4436034;27;658946;-71
2023/11/26 07:45:50;;;;;;;4.00;1.93;;;-1.80;99.90;;;;;;4438179;27;656292;-70
2023/11/26 07:48:37;;;;;;;6.23;3.30;;;-1.80;99.90;;;;;;4455245;27;656842;-73
2023/11/26 07:51:24;;;;;;;9.83;4.47;;;-1.80;99.90;;;;;;4437793;27;657815;-73
2023/11/26 07:54:11;;;;;;;8.70;4.70;;;-1.80;99.90;;;;;;4456037;27;656416;-73
2023/11/26 07:56:59;;;;;;;11.93;4.77;;;-1.80;99.90;;;;;;4437442;27;656977;-73
2023/11/26 07:59:46;;;;;;;6.33;2.50;;;-1.80;99.90;;;;;;4458377;28;657604;-72
2023/11/26 08:02:36;;;;;;;8.60;4.20;;;-1.70;99.90;;;;;;4433114;28;656638;-73
2023/11/26 08:05:23;;;;;;;10.37;4.23;;;-1.70;99.90;;;;;;4428584;28;656365;-72
2023/11/26 08:08:10;;;;;;;8.43;4.17;;;-1.60;99.90;;;;;;4466636;27;658001;-72
2023/11/26 08:10:58;;;;;;;9.70;3.87;;;-1.50;99.90;;;;;;4426813;28;657374;-69
2023/11/26 08:13:46;;;;;;;9.20;3.93;;;-1.20;99.90;;;;;;4448669;27;656835;-73
2023/11/26 08:16:33;;;;;;;6.53;3.27;;;-0.80;99.90;;;;;;4436434;27;656751;-73
2023/11/26 08:19:24;;;;;;;4.73;2.73;;;-0.70;99.90;;;;;;4448236;27;657290;-73
2023/11/26 08:22:12;;;;;;;8.53;3.77;;;-0.60;99.90;;;;;;4427907;28;657876;-73
2023/11/26 08:25:02;;;;;;;6.00;2.90;;;-0.20;99.90;;;;;;4436650;27;657269;-71
2023/11/26 08:27:49;;;;;;;9.93;4.83;;;-0.10;99.90;;;;;;4441155;28;656885;-71
2023/11/26 08:30:42;;;;;;;10.50;4.07;;;-0.50;99.90;;;;;;4449131;27;656571;-71
2023/11/26 08:33:36;;;;;;;12.47;5.30;;;-0.20;99.90;;;;;;4409224;27;660626;-72
2023/11/26 08:36:25;;;;;;;6.83;2.97;;;-0.10;99.90;;;;;;4404873;28;658213;-70
2023/11/26 08:39:18;;;;;;;10.53;4.73;;;0.00;99.90;;;;;;4429028;28;656282;-73
2023/11/26 08:42:06;;;;;;;12.60;5.37;;;-0.50;99.90;;;;;;4435127;28;657119;-72
2023/11/26 08:44:56;;;;;;;8.23;2.63;;;-0.30;99.90;;;;;;4426681;28;657952;-73
2023/11/26 08:47:45;;;;;;;13.40;4.07;;;-0.10;99.90;;;;;;4438141;28;657350;-73
2023/11/26 08:50:32;;;;;;;9.33;4.57;;;0.00;99.90;;;;;;4445433;28;657424;-73
2023/11/26 08:53:22;;;;;;;12.47;5.30;;;-0.20;99.90;;;;;;4434530;28;655241;-71
2023/11/26 08:56:09;;;;;;;13.80;5.30;;;-0.10;99.90;;;;;;4427194;28;657611;-71
2023/11/26 08:58:57;;;;;;;14.20;5.87;;;0.40;99.90;;;;;;4446164;28;657308;-71
2023/11/26 09:01:44;;;;;;;10.50;4.77;;;1.20;99.90;;;;;;4441196;28;656568;-71
2023/11/26 09:04:31;;;;;;;20.92;8.35;;;1.10;99.90;;;;;;4454756;28;656983;-74
2023/11/26 09:07:19;;;;;;;20.70;7.33;;;0.00;99.90;;;;;;4436359;28;656867;-72
2023/11/26 09:10:09;;;;;;;17.17;7.23;;;1.20;99.90;;;;;;4459219;28;656539;-69
2023/11/26 09:12:56;;;;;;;13.40;7.05;;;2.00;99.90;;;;;;4424736;28;656810;-72
2023/11/26 09:15:44;;;;;;;18.13;6.60;;;1.50;99.90;;;;;;4430935;28;656125;-72
2023/11/26 09:18:31;;;;;;;10.57;4.70;;;1.10;99.90;;;;;;4453241;28;657275;-73
2023/11/26 09:21:18;;;;;;;6.20;2.87;;;0.80;99.90;;;;;;4431430;28;657443;-73
2023/11/26 09:24:06;;;;;;;20.73;9.90;;;0.40;99.90;;;;;;4462870;28;655690;-74
2023/11/26 09:26:55;;;;;;;18.80;8.67;;;0.40;99.90;;;;;;4427867;28;656411;-72
2023/11/26 09:29:42;;;;;;;14.27;5.73;;;1.20;99.90;;;;;;4450980;28;657941;-70
2023/11/26 09:32:30;;;;;;;5.20;2.57;;;1.50;99.90;;;;;;4443760;28;657505;-72
2023/11/26 09:35:17;;;;;;;11.87;6.40;;;1.40;99.90;;;;;;4461724;28;655871;-71
2023/11/26 09:38:05;;;;;;;13.73;6.07;;;2.00;99.90;;;;;;4462101;28;657174;-73
2023/11/26 09:40:52;;;;;;;10.40;5.70;;;1.60;99.90;;;;;;4448752;28;657732;-70
2023/11/26 09:43:41;;;;;;;7.87;3.20;;;1.60;99.90;;;;;;4457255;27;657710;-73
2023/11/26 09:46:28;;;;;;;10.00;4.70;;;2.90;99.90;;;;;;4430905;27;655992;-72
2023/11/26 09:49:15;;;;;;;11.30;4.67;;;2.80;99.90;;;;;;4460258;27;657487;-73
2023/11/26 09:52:03;;;;;;;9.88;4.80;;;2.80;99.90;;;;;;4440049;27;656674;-70
2023/11/26 09:54:50;;;;;;;8.53;4.00;;;1.90;99.90;;;;;;4450682;27;657230;-72
2023/11/26 09:57:39;;;;;;;10.47;4.80;;;1.50;99.90;;;;;;4441924;28;655608;-69
2023/11/26 10:00:28;;;;;;;15.73;4.50;;;0.90;99.90;;;;;;4446924;27;656029;-70
2023/11/26 10:03:15;;;;;;;11.77;4.47;;;0.40;99.90;;;;;;4437865;27;656972;-74
2023/11/26 10:06:09;;;;;;;13.93;5.20;;;-0.20;99.90;;;;;;4440516;27;656614;-72
2023/11/26 10:08:57;;;;;;;12.47;4.10;;;-0.60;99.90;;;;;;4422732;28;657776;-74
2023/11/26 10:11:44;;;;;;;10.67;5.50;;;-0.50;99.90;;;;;;4427200;28;656988;-74
2023/11/26 10:14:32;;;;;;;11.90;3.47;;;-0.10;99.90;;;;;;4451270;27;657510;-74
2023/11/26 10:17:21;;;;;;;7.57;4.10;;;0.70;99.90;;;;;;4442460;27;657584;-72
2023/11/26 10:20:16;;;;;;;8.23;3.57;;;1.40;99.90;;;;;;4438632;27;655970;-72
2023/11/26 10:23:03;;;;;;;4.18;2.25;;;1.40;99.90;;;;;;4413548;27;656272;-71
2023/11/26 10:25:51;;;;;;;3.93;1.87;;;1.00;99.90;;;;;;4449903;27;655890;-74
2023/11/26 10:28:38;;;;;;;3.07;1.13;;;0.20;99.90;;;;;;4438535;27;656000;-72
2023/11/26 10:31:25;;;;;;;5.43;2.53;;;0.10;99.90;;;;;;4444338;27;655931;-71
2023/11/26 10:34:16;;;;;;;8.53;2.90;;;0.10;99.90;;;;;;4438626;27;656164;-72
2023/11/26 10:37:03;;;;;;;3.60;1.70;;;0.30;99.90;;;;;;4441628;27;655483;-73
2023/11/26 10:39:52;;;;;;;5.00;1.80;;;0.60;99.90;;;;;;4467784;27;655587;-73
2023/11/26 10:42:39;;;;;;;2.43;0.97;;;0.40;99.90;;;;;;4432370;27;656056;-73
2023/11/26 10:45:27;;;;;;;5.63;2.43;;;0.10;99.90;;;;;;4451845;27;655489;-73
2023/11/26 10:48:15;;;;;;;7.70;2.80;;;-0.20;99.90;;;;;;4438337;27;656125;-72
2023/11/26 10:51:06;;;;;;;5.77;2.50;;;-0.50;99.90;;;;;;4444289;28;656381;-72
2023/11/26 10:53:57;;;;;;;6.17;2.17;;;-0.80;99.90;;;;;;4430351;28;656915;-73
2023/11/26 10:56:44;;;;;;;6.27;2.40;;;-0.70;99.90;;;;;;4435633;27;657328;-73
2023/11/26 10:59:31;;;;;;;7.37;2.50;;;-0.50;99.90;;;;;;4452718;27;656538;-73
2023/11/26 11:02:18;;;;;;;12.73;2.33;;;-0.10;99.90;;;;;;4443684;27;656774;-73
2023/11/26 11:05:06;;;;;;;2.83;1.73;;;0.30;99.90;;;;;;4442098;28;657713;-73
2023/11/26 11:07:55;;;;;;;1.63;0.53;;;1.10;99.90;;;;;;4445903;27;656068;-73
2023/11/26 11:10:47;;;;;;;3.20;1.70;;;1.00;99.90;;;;;;4449633;27;655364;-72
2023/11/26 11:13:34;;;;;;;3.83;2.03;;;1.00;99.90;;;;;;4446373;27;657031;-71
2023/11/26 11:16:22;;;;;;;5.10;2.43;;;0.60;99.90;;;;;;4452475;27;656436;-74
2023/11/26 11:19:09;;;;;;;4.53;2.77;;;0.30;99.90;;;;;;4417598;27;656196;-74
2023/11/26 11:21:56;;;;;;;7.47;3.00;;;0.50;99.90;;;;;;4455598;27;656396;-75
2023/11/26 11:24:45;;;;;;;9.30;3.40;;;0.80;99.90;;;;;;4432696;27;655590;-75
2023/11/26 11:27:48;;;;;;;4.83;2.37;;;1.00;99.90;;;;;;4458996;27;655037;-74
2023/11/26 11:30:55;;;;;;;4.40;2.10;;;0.80;99.90;;;;;;4432611;27;656109;-73
2023/11/26 11:34:19;;;;;;;5.63;2.50;;;0.20;99.90;;;;;;4408540;27;655586;-70
2023/11/26 11:37:08;;;;;;;10.00;3.33;;;0.70;99.90;;;;;;4430347;27;655762;-71
2023/11/26 11:39:58;;;;;;;6.87;2.70;;;1.20;99.90;;;;;;4436506;28;657355;-72
2023/11/26 11:43:07;;;;;;;5.57;3.13;;;2.00;99.90;;;;;;4431594;28;655848;-72
2023/11/26 11:45:55;;;;;;;6.35;3.08;;;3.50;99.90;;;;;;4437291;27;655804;-72
2023/11/26 11:48:55;;;;;;;8.03;2.30;;;3.50;99.90;;;;;;4456901;28;655314;-72
2023/11/26 11:51:43;;;;;;;6.30;2.40;;;4.40;99.90;;;;;;4435136;27;656036;-71
2023/11/26 11:54:53;;;;;;;6.33;2.20;;;4.20;99.90;;;;;;4458790;27;655799;-72
2023/11/26 11:57:45;;;;;;;3.97;1.97;;;4.10;99.90;;;;;;4437016;28;656256;-71
2023/11/26 12:00:33;;;;;;;5.33;0.93;;;2.10;99.90;;;;;;4416953;27;655241;-69
2023/11/26 12:03:20;;;;;;;9.23;3.07;;;1.40;99.90;;;;;;4451576;27;656209;-71
2023/11/26 12:06:11;;;;;;;4.67;2.23;;;0.30;99.90;;;;;;4428872;28;657866;-72
2023/11/26 12:08:58;;;;;;;7.33;3.07;;;-0.10;99.90;;;;;;4426937;27;655914;-74
2023/11/26 12:11:47;;;;;;;9.93;2.87;;;0.10;99.90;;;;;;4443359;28;657382;-74
2023/11/26 12:14:36;;;;;;;6.20;1.57;;;-0.20;99.90;;;;;;4434089;27;656481;-74
2023/11/26 12:17:23;;;;;;;5.30;2.50;;;-0.30;99.90;;;;;;4428131;28;656520;-73
2023/11/26 12:20:11;;;;;;;11.33;3.80;;;-0.50;99.90;;;;;;4463447;27;657202;-73
2023/11/26 12:22:58;;;;;;;2.47;1.40;;;-0.90;99.90;;;;;;4437424;28;658067;-72
2023/11/26 12:25:52;;;;;;;4.27;2.17;;;-0.70;99.90;;;;;;4420819;27;657058;-71
2023/11/26 12:28:43;;;;;;;9.57;3.87;;;-0.90;99.90;;;;;;4300593;27;656972;-71
2023/11/26 12:31:31;;;;;;;3.67;2.07;;;-1.10;99.90;;;;;;4321936;28;657165;-73
2023/11/26 12:34:19;;;;;;;10.80;2.97;;;-0.90;99.90;;;;;;4391267;28;656766;-73
2023/11/26 12:37:07;;;;;;;8.10;3.40;;;-1.00;99.90;;;;;;4446761;28;658202;-74
2023/11/26 12:39:54;;;;;;;6.13;2.73;;;-1.00;99.90;;;;;;4438207;28;657360;-73
2023/11/26 12:42:42;;;;;;;7.27;2.67;;;-0.90;99.90;;;;;;4463618;28;656236;-74
2023/11/26 12:45:29;;;;;;;2.23;1.27;;;-0.80;99.90;;;;;;4441190;28;656950;-73
2023/11/26 12:48:18;;;;;;;8.07;2.13;;;0.00;99.90;;;;;;4457190;28;657026;-74
2023/11/26 12:51:06;;;;;;;3.30;2.03;;;0.40;99.90;;;;;;4430187;28;657165;-74
2023/11/26 12:53:54;;;;;;;5.87;1.20;;;-0.20;99.90;;;;;;4442790;28;656390;-74
2023/11/26 12:56:42;;;;;;;2.10;1.00;;;-0.60;99.90;;;;;;4447032;28;656219;-73
2023/11/26 12:59:30;;;;;;;9.83;2.10;;;-0.50;99.90;;;;;;4446134;28;657808;-73
2023/11/26 13:02:17;;;;;;;4.90;1.85;;;-0.40;99.90;;;;;;4435928;28;656256;-72
2023/11/26 13:05:30;;;;;;;4.97;1.70;;;-0.60;99.90;;;;;;4464612;28;657358;-74
2023/11/26 13:08:18;;;;;;;4.77;2.13;;;-0.70;99.90;;;;;;4436618;28;656618;-71
2023/11/26 13:11:06;;;;;;;3.53;1.63;;;-0.80;99.90;;;;;;4463120;28;657294;-74
2023/11/26 13:13:53;;;;;;;6.13;2.23;;;-0.80;99.90;;;;;;4444298;28;656737;-74
2023/11/26 13:16:40;;;;;;;4.87;2.30;;;-0.90;99.90;;;;;;4457752;28;656801;-74
2023/11/26 13:19:27;;;;;;;6.40;2.42;;;-0.90;99.90;;;;;;4440734;27;656663;-72
2023/11/26 13:22:16;;;;;;;44.20;3.77;;;-0.80;99.90;;;;;;4471759;27;657289;-73
2023/11/26 13:25:04;;;;;;;1.77;1.00;;;-0.80;99.90;;;;;;4433546;28;657694;-74
2023/11/26 13:27:51;;;;;;;4.93;2.30;;;-1.10;99.90;;;;;;4460885;27;657311;-74
2023/11/26 13:30:39;;;;;;;6.50;2.88;;;-1.10;99.90;;;;;;4434076;28;656660;-74
2023/11/26 13:33:27;;;;;;;3.03;1.40;;;-1.00;99.90;;;;;;4443194;28;657043;-74
2023/11/26 13:36:15;;;;;;;7.27;2.80;;;-1.20;99.90;;;;;;4435928;28;657012;-74
2023/11/26 13:39:05;;;;;;;5.73;2.80;;;-1.10;99.90;;;;;;4441053;28;656672;-73
2023/11/26 13:41:52;;;;;;;6.87;3.23;;;-0.90;99.90;;;;;;4446610;28;656753;-72
2023/11/26 13:44:39;;;;;;;4.97;2.53;;;-0.90;99.90;;;;;;4459375;28;657281;-74
2023/11/26 13:47:27;;;;;;;8.57;2.80;;;-1.10;99.90;;;;;;4459076;28;656264;-73
2023/11/26 13:50:14;;;;;;;8.00;3.70;;;-1.10;99.90;;;;;;4427456;28;658437;-73
2023/11/26 13:53:03;;;;;;;6.87;2.90;;;-1.30;99.90;;;;;;4456570;28;656507;-72
2023/11/26 13:55:53;;;;;;;6.03;2.80;;;-1.30;99.90;;;;;;4429297;28;658179;-74
2023/11/26 13:58:41;;;;;;;8.67;3.20;;;-1.20;99.90;;;;;;4433217;28;656749;-73
2023/11/26 14:01:28;;;;;;;8.13;3.43;;;-1.20;99.90;;;;;;4448089;28;657240;-74
2023/11/26 14:04:15;;;;;;;7.97;3.60;;;-1.30;99.90;;;;;;4456859;28;657184;-73
2023/11/26 14:07:02;;;;;;;7.37;3.40;;;-1.40;99.90;;;;;;4453883;28;656739;-72
2023/11/26 14:09:50;;;;;;;5.70;2.87;;;-1.40;99.90;;;;;;4460962;28;657905;-74
2023/11/26 14:12:38;;;;;;;7.07;3.47;;;-1.50;99.90;;;;;;4469657;28;656407;-73
2023/11/26 14:15:26;;;;;;;6.83;1.97;;;-1.60;99.90;;;;;;4430413;28;657338;-73
2023/11/26 14:18:13;;;;;;;4.10;2.00;;;-1.60;99.90;;;;;;4435306;28;656176;-73
2023/11/26 14:21:00;;;;;;;8.13;3.60;;;-1.70;99.90;;;;;;4457584;28;657371;-73
2023/11/26 14:23:47;;;;;;;7.13;3.00;;;-1.90;99.90;;;;;;4442101;28;656720;-72